Time;durP1;ratioP1;P1;durP2;ratioP2;P2;SDS_P1;SDS_P2;PMS_P1;PMS_P2;Temp;Humidity;BMP_temperature;BMP_pressure;BME280_temperature;BME280_humidity;BME280_pressure;Samples;Min_cycle;Max_cycle;Signal;HPM_P1;HPM_P2
2023/05/12 00:01:42;;;;;;;4.15;2.20;;;10.00;99.90;;;;;;5036939;28;20022;-72
2023/05/12 00:04:07;;;;;;;3.42;2.53;;;9.90;99.90;;;;;;5035464;28;20021;-72
2023/05/12 00:06:33;;;;;;;5.45;2.72;;;10.00;99.90;;;;;;5037196;28;20394;-72
2023/05/12 00:08:59;;;;;;;3.65;2.40;;;10.00;99.90;;;;;;5036812;28;20120;-72
2023/05/12 00:11:25;;;;;;;2.92;2.60;;;10.00;99.90;;;;;;5036847;28;20053;-72
2023/05/12 00:13:50;;;;;;;2.40;2.20;;;9.90;99.90;;;;;;5039903;28;20028;-71
2023/05/12 00:16:17;;;;;;;2.30;2.10;;;9.90;99.90;;;;;;5046104;28;20448;-71
2023/05/12 00:18:44;;;;;;;2.60;2.40;;;9.90;99.90;;;;;;5036162;28;20041;-73
2023/05/12 00:21:11;;;;;;;3.80;2.60;;;9.80;99.90;;;;;;5039741;28;20038;-71
2023/05/12 00:23:37;;;;;;;2.88;2.40;;;9.80;99.90;;;;;;5040440;28;20025;-72
2023/05/12 00:26:03;;;;;;;5.15;2.83;;;9.70;99.90;;;;;;5041055;28;20134;-72
2023/05/12 00:28:29;;;;;;;4.63;2.40;;;9.70;99.90;;;;;;5040631;28;20029;-72
2023/05/12 00:30:55;;;;;;;4.47;3.08;;;9.70;99.90;;;;;;5039579;28;20412;-73
2023/05/12 00:33:21;;;;;;;7.72;3.35;;;9.70;99.90;;;;;;5039500;28;20028;-72
2023/05/12 00:35:46;;;;;;;4.22;2.42;;;9.60;99.90;;;;;;5039559;28;20029;-73
2023/05/12 00:38:12;;;;;;;4.50;2.45;;;9.60;99.90;;;;;;5040711;28;20021;-72
2023/05/12 00:40:39;;;;;;;4.80;2.80;;;9.60;99.90;;;;;;5040897;28;20092;-72
2023/05/12 00:43:05;;;;;;;3.47;2.53;;;9.50;99.90;;;;;;5040437;28;20081;-72
2023/05/12 00:45:31;;;;;;;3.92;2.70;;;9.60;99.90;;;;;;5039927;28;20037;-73
2023/05/12 00:47:57;;;;;;;3.10;2.50;;;9.60;99.90;;;;;;5040454;28;20032;-73
2023/05/12 00:50:23;;;;;;;2.63;2.40;;;9.60;99.90;;;;;;5039219;28;20034;-73
2023/05/12 00:52:48;;;;;;;3.20;2.47;;;9.60;99.90;;;;;;5040458;28;20506;-73
2023/05/12 00:55:15;;;;;;;3.47;2.83;;;9.60;99.90;;;;;;5039341;28;20120;-73
2023/05/12 00:57:42;;;;;;;4.28;2.75;;;9.60;99.90;;;;;;5040171;28;20040;-74
2023/05/12 01:00:09;;;;;;;2.92;2.65;;;9.60;99.90;;;;;;5039213;28;20029;-73
2023/05/12 01:02:35;;;;;;;5.85;4.75;;;9.60;99.90;;;;;;5040357;28;20045;-73
2023/05/12 01:05:01;;;;;;;2.97;2.60;;;9.60;99.90;;;;;;5040332;28;20021;-73
2023/05/12 01:07:31;;;;;;;6.13;2.72;;;9.60;99.90;;;;;;5040110;28;20026;-73
2023/05/12 01:09:58;;;;;;;3.20;2.60;;;9.60;99.90;;;;;;5040423;28;20460;-75
2023/05/12 01:12:24;;;;;;;3.88;2.60;;;9.60;99.90;;;;;;5039885;28;20057;-72
2023/05/12 01:14:53;;;;;;;6.82;2.92;;;9.60;99.90;;;;;;5038863;28;20049;-73
2023/05/12 01:17:22;;;;;;;3.60;3.05;;;9.60;99.90;;;;;;5040028;28;20069;-73
2023/05/12 01:19:52;;;;;;;2.90;2.50;;;9.70;99.90;;;;;;5038615;28;20029;-73
2023/05/12 01:22:18;;;;;;;3.00;2.80;;;9.70;99.90;;;;;;5038709;28;20056;-73
2023/05/12 01:24:56;;;;;;;3.28;2.70;;;9.70;99.90;;;;;;5040323;28;20037;-73
2023/05/12 01:27:24;;;;;;;3.67;3.05;;;9.70;99.90;;;;;;5039896;28;20024;-74
2023/05/12 01:29:51;;;;;;;4.03;2.85;;;9.70;99.90;;;;;;5039625;28;20049;-72
2023/05/12 01:32:18;;;;;;;3.88;2.90;;;9.70;99.90;;;;;;5039836;28;20036;-73
2023/05/12 01:34:44;;;;;;;4.32;2.80;;;9.70;99.90;;;;;;5039693;28;20375;-73
2023/05/12 01:37:10;;;;;;;5.68;3.05;;;9.70;99.90;;;;;;5040072;28;20056;-73
2023/05/12 01:39:36;;;;;;;6.35;2.67;;;9.80;99.90;;;;;;5039771;28;20075;-73
2023/05/12 01:42:04;;;;;;;10.18;2.65;;;9.70;99.90;;;;;;5039352;28;20469;-73
2023/05/12 01:44:29;;;;;;;3.65;3.20;;;9.70;99.90;;;;;;5038296;28;21427;-73
2023/05/12 01:46:55;;;;;;;4.32;2.75;;;9.70;99.90;;;;;;5039563;28;20503;-73
2023/05/12 01:49:21;;;;;;;3.95;2.70;;;9.70;99.90;;;;;;5038311;28;20036;-73
2023/05/12 01:51:46;;;;;;;3.38;2.85;;;9.70;99.90;;;;;;5039449;28;20105;-73
2023/05/12 01:54:12;;;;;;;5.70;2.72;;;9.70;99.90;;;;;;5039438;28;20032;-73
2023/05/12 01:56:38;;;;;;;3.47;3.17;;;9.60;99.90;;;;;;5038143;28;20013;-73
2023/05/12 01:59:03;;;;;;;5.15;2.88;;;9.60;99.90;;;;;;5037805;28;20446;-73
2023/05/12 02:01:31;;;;;;;3.78;3.15;;;9.70;99.90;;;;;;5039454;28;20677;-73
2023/05/12 02:03:56;;;;;;;5.70;2.83;;;9.60;99.90;;;;;;5039133;28;20477;-73
2023/05/12 02:06:22;;;;;;;5.28;2.63;;;9.60;99.90;;;;;;5039250;28;20034;-73
2023/05/12 02:08:48;;;;;;;4.75;2.78;;;9.60;99.90;;;;;;5039157;28;20029;-73
2023/05/12 02:11:14;;;;;;;4.75;3.22;;;9.70;99.90;;;;;;5039111;28;20066;-74
2023/05/12 02:13:41;;;;;;;5.28;2.90;;;9.70;99.90;;;;;;5038744;28;20052;-73
2023/05/12 02:16:06;;;;;;;6.32;3.10;;;9.70;99.90;;;;;;5039144;28;20029;-73
2023/05/12 02:18:32;;;;;;;7.00;2.88;;;9.70;99.90;;;;;;5037358;28;20045;-73
2023/05/12 02:20:58;;;;;;;3.10;2.80;;;9.70;99.90;;;;;;5039050;28;20028;-73
2023/05/12 02:23:24;;;;;;;6.20;2.97;;;9.70;99.90;;;;;;5038897;28;20021;-73
2023/05/12 02:25:49;;;;;;;6.00;3.20;;;9.70;99.90;;;;;;5037654;28;20032;-72
2023/05/12 02:28:15;;;;;;;3.80;2.97;;;9.70;99.90;;;;;;5038398;28;20021;-72
2023/05/12 02:30:45;;;;;;;4.13;2.80;;;9.70;99.90;;;;;;5038755;28;20039;-73
2023/05/12 02:33:11;;;;;;;5.03;2.92;;;9.80;99.90;;;;;;5038606;28;20071;-73
2023/05/12 02:35:37;;;;;;;6.97;3.05;;;9.70;99.90;;;;;;5038684;28;20029;-72
2023/05/12 02:38:03;;;;;;;7.90;3.00;;;9.80;99.90;;;;;;5037271;28;20030;-73
2023/05/12 02:40:29;;;;;;;4.93;3.40;;;9.80;99.90;;;;;;5038696;28;20490;-73
2023/05/12 02:42:55;;;;;;;3.55;3.25;;;9.80;99.90;;;;;;5037482;28;20030;-73
2023/05/12 02:45:21;;;;;;;5.30;3.38;;;9.80;99.90;;;;;;5037191;28;20029;-73
2023/05/12 02:47:47;;;;;;;6.28;3.88;;;9.80;99.90;;;;;;5038271;28;20030;-73
2023/05/12 02:50:13;;;;;;;6.63;4.22;;;9.80;99.90;;;;;;5037031;28;20393;-73
2023/05/12 02:52:39;;;;;;;7.50;4.88;;;9.80;99.90;;;;;;5037248;28;20398;-72
2023/05/12 02:55:05;;;;;;;8.00;6.93;;;9.80;99.90;;;;;;5038332;28;20029;-73
2023/05/12 02:57:32;;;;;;;7.78;5.40;;;9.70;99.90;;;;;;5037988;28;20026;-73
2023/05/12 02:59:59;;;;;;;5.50;4.97;;;9.70;99.90;;;;;;5038249;28;20024;-74
2023/05/12 03:02:25;;;;;;;9.35;4.78;;;9.60;99.90;;;;;;5037684;28;20026;-73
2023/05/12 03:04:51;;;;;;;8.52;5.00;;;9.60;99.90;;;;;;5037541;28;20398;-74
2023/05/12 03:07:16;;;;;;;10.02;4.65;;;9.60;99.90;;;;;;5037205;28;20022;-74
2023/05/12 03:09:42;;;;;;;7.60;4.38;;;9.60;99.90;;;;;;5037868;28;20053;-73
2023/05/12 03:12:08;;;;;;;7.32;3.92;;;9.60;99.90;;;;;;5037454;28;20053;-73
2023/05/12 03:14:34;;;;;;;7.88;4.15;;;9.60;99.90;;;;;;5037983;28;20025;-73
2023/05/12 03:16:59;;;;;;;5.60;4.03;;;9.50;99.90;;;;;;5037702;28;20030;-74
2023/05/12 03:19:26;;;;;;;14.63;5.18;;;9.50;99.90;;;;;;5037800;28;20034;-74
2023/05/12 03:21:52;;;;;;;4.75;3.95;;;9.60;99.90;;;;;;5037902;28;20087;-73
2023/05/12 03:24:18;;;;;;;6.57;4.50;;;9.60;99.90;;;;;;5037918;28;20032;-74
2023/05/12 03:26:44;;;;;;;7.70;4.65;;;9.60;99.90;;;;;;5037641;28;20390;-73
2023/05/12 03:29:10;;;;;;;6.82;4.65;;;9.60;99.90;;;;;;5037604;28;20041;-73
2023/05/12 03:31:35;;;;;;;6.72;4.30;;;9.60;99.90;;;;;;5036216;28;20025;-73
2023/05/12 03:34:01;;;;;;;7.70;4.68;;;9.60;99.90;;;;;;5036211;28;20025;-73
2023/05/12 03:36:27;;;;;;;5.70;5.07;;;9.60;99.90;;;;;;5037504;28;20022;-74
2023/05/12 03:38:52;;;;;;;6.30;3.78;;;9.60;99.90;;;;;;5037690;28;20032;-73
2023/05/12 03:41:18;;;;;;;6.57;4.45;;;9.60;99.90;;;;;;5037486;28;20145;-74
2023/05/12 03:43:43;;;;;;;10.60;4.45;;;9.60;99.90;;;;;;5035915;28;20042;-73
2023/05/12 03:46:09;;;;;;;8.18;4.10;;;9.60;99.90;;;;;;5037303;28;20030;-74
2023/05/12 03:48:35;;;;;;;7.38;4.25;;;9.60;99.90;;;;;;5037399;28;20037;-72
2023/05/12 03:51:00;;;;;;;9.20;4.07;;;9.60;99.90;;;;;;5037173;28;20084;-73
2023/05/12 03:53:26;;;;;;;6.03;4.18;;;9.60;99.90;;;;;;5036472;28;20111;-73
2023/05/12 03:55:52;;;;;;;8.50;4.10;;;9.60;99.90;;;;;;5037176;28;20028;-73
2023/05/12 03:58:17;;;;;;;10.65;5.03;;;9.60;99.90;;;;;;5037153;28;20030;-74
2023/05/12 04:00:43;;;;;;;11.00;4.60;;;9.60;99.90;;;;;;5037085;28;20025;-73
2023/05/12 04:03:09;;;;;;;11.82;6.32;;;9.60;99.90;;;;;;5037230;28;20037;-73
2023/05/12 04:05:36;;;;;;;9.93;4.88;;;9.60;99.90;;;;;;5037126;28;20402;-73
2023/05/12 04:08:02;;;;;;;6.05;4.07;;;9.60;99.90;;;;;;5037177;28;20025;-72
2023/05/12 04:10:28;;;;;;;9.02;3.60;;;9.60;99.90;;;;;;5036990;28;20028;-74
2023/05/12 04:12:53;;;;;;;5.60;4.10;;;9.60;99.90;;;;;;5037016;28;20100;-74
2023/05/12 04:15:20;;;;;;;10.65;4.25;;;9.60;99.90;;;;;;5035726;28;20049;-73
2023/05/12 04:17:45;;;;;;;6.63;3.65;;;9.60;99.90;;;;;;5037081;28;20049;-73
2023/05/12 04:20:11;;;;;;;10.32;4.28;;;9.60;99.90;;;;;;5036817;28;20072;-73
2023/05/12 04:22:37;;;;;;;4.28;3.88;;;9.60;99.90;;;;;;5037208;28;20049;-73
2023/05/12 04:25:03;;;;;;;9.90;4.13;;;9.60;99.90;;;;;;5037013;28;20481;-73
2023/05/12 04:27:28;;;;;;;5.88;4.50;;;9.50;99.90;;;;;;5036777;28;20143;-73
2023/05/12 04:29:54;;;;;;;7.63;4.32;;;9.50;99.90;;;;;;5035597;28;20064;-74
2023/05/12 04:32:20;;;;;;;4.97;4.57;;;9.60;99.90;;;;;;5035620;28;20029;-73
2023/05/12 04:34:46;;;;;;;11.80;4.70;;;9.50;99.90;;;;;;5036760;28;20017;-73
2023/05/12 04:37:12;;;;;;;6.60;4.55;;;9.50;99.90;;;;;;5037059;28;20026;-73
2023/05/12 04:39:38;;;;;;;5.97;4.40;;;9.50;99.90;;;;;;5036852;28;20018;-72
2023/05/12 04:42:03;;;;;;;8.80;4.95;;;9.50;99.90;;;;;;5036614;28;20085;-72
2023/05/12 04:44:29;;;;;;;9.90;4.65;;;9.60;99.90;;;;;;5035516;28;20112;-72
2023/05/12 04:46:55;;;;;;;5.57;4.35;;;9.60;99.90;;;;;;5036823;28;20409;-73
2023/05/12 04:49:21;;;;;;;6.82;4.80;;;9.60;99.90;;;;;;5035681;28;20025;-73
2023/05/12 04:51:47;;;;;;;7.82;5.65;;;9.60;99.90;;;;;;5036794;28;20032;-74
2023/05/12 04:54:13;;;;;;;6.28;4.53;;;9.60;99.90;;;;;;5036714;28;20022;-73
2023/05/12 04:56:38;;;;;;;9.90;5.20;;;9.60;99.90;;;;;;5035213;28;20509;-72
2023/05/12 04:59:05;;;;;;;11.75;6.07;;;9.70;99.90;;;;;;5036372;28;20028;-73
2023/05/12 05:01:30;;;;;;;7.70;5.63;;;9.70;99.90;;;;;;5036999;28;20021;-72
2023/05/12 05:03:56;;;;;;;9.73;5.70;;;9.70;99.90;;;;;;5036460;28;20036;-73
2023/05/12 05:06:22;;;;;;;8.10;5.50;;;9.70;99.90;;;;;;5039128;28;20041;-72
2023/05/12 05:08:48;;;;;;;7.07;5.43;;;9.80;99.90;;;;;;5040299;28;20104;-73
2023/05/12 05:11:13;;;;;;;12.88;5.60;;;9.80;99.90;;;;;;5040244;28;20441;-73
2023/05/12 05:13:39;;;;;;;12.35;5.80;;;9.80;99.90;;;;;;5040112;28;20030;-73
2023/05/12 05:16:05;;;;;;;11.50;5.85;;;9.80;99.90;;;;;;5040240;28;20393;-72
2023/05/12 05:18:31;;;;;;;10.27;5.95;;;9.80;99.90;;;;;;5038472;28;20137;-72
2023/05/12 05:20:56;;;;;;;12.32;5.28;;;9.90;99.90;;;;;;5040111;28;20537;-72
2023/05/12 05:23:22;;;;;;;8.27;6.30;;;9.90;99.90;;;;;;5039923;28;20048;-72
2023/05/12 05:25:50;;;;;;;6.20;5.40;;;9.90;99.90;;;;;;5040171;28;20049;-73
2023/05/12 05:28:15;;;;;;;6.97;5.50;;;9.90;99.90;;;;;;5039578;28;20116;-72
2023/05/12 05:30:41;;;;;;;7.07;5.82;;;9.90;99.90;;;;;;5039827;28;20057;-73
2023/05/12 05:33:07;;;;;;;6.55;4.93;;;9.90;99.90;;;;;;5039713;28;20033;-72
2023/05/12 05:35:33;;;;;;;12.02;5.88;;;9.90;99.90;;;;;;5038829;28;20026;-72
2023/05/12 05:37:58;;;;;;;11.65;6.18;;;9.90;99.90;;;;;;5039759;28;20041;-72
2023/05/12 05:40:24;;;;;;;8.55;5.60;;;10.00;99.90;;;;;;5039930;28;20431;-71
2023/05/12 05:42:50;;;;;;;7.55;5.13;;;9.90;99.90;;;;;;5039519;28;20037;-72
2023/05/12 05:45:15;;;;;;;9.90;6.53;;;10.00;99.90;;;;;;5039794;28;20543;-72
2023/05/12 05:47:41;;;;;;;8.52;5.88;;;10.00;99.90;;;;;;5039394;28;20029;-73
2023/05/12 05:50:07;;;;;;;9.23;6.10;;;10.00;99.90;;;;;;5038169;28;20397;-73
2023/05/12 05:52:33;;;;;;;10.32;5.93;;;10.00;99.90;;;;;;5039381;28;21316;-73
2023/05/12 05:54:59;;;;;;;12.02;5.40;;;10.00;99.90;;;;;;5039084;28;20021;-73
2023/05/12 05:57:27;;;;;;;13.30;6.60;;;10.00;99.90;;;;;;5038860;28;20029;-72
2023/05/12 05:59:52;;;;;;;10.18;6.47;;;10.10;99.90;;;;;;5028769;28;20125;-72
2023/05/12 06:02:21;;;;;;;8.48;6.90;;;10.10;99.90;;;;;;5035227;28;20061;-72
2023/05/12 06:04:47;;;;;;;9.13;5.47;;;10.20;99.90;;;;;;5039366;28;20083;-72
2023/05/12 06:07:13;;;;;;;14.27;6.85;;;10.20;99.90;;;;;;5037806;28;20026;-72
2023/05/12 06:09:39;;;;;;;10.00;6.25;;;10.20;99.90;;;;;;5039234;28;20033;-72
2023/05/12 06:12:05;;;;;;;14.40;7.72;;;10.20;99.90;;;;;;5038523;28;20038;-72
2023/05/12 06:14:30;;;;;;;9.40;6.80;;;10.20;99.90;;;;;;5039178;28;20463;-72
2023/05/12 06:16:56;;;;;;;7.93;6.05;;;10.20;99.90;;;;;;5036511;28;20025;-73
2023/05/12 06:19:21;;;;;;;10.57;5.70;;;10.20;99.90;;;;;;5038837;28;20029;-72
2023/05/12 06:21:47;;;;;;;11.65;6.13;;;10.20;99.90;;;;;;5039068;28;20036;-73
2023/05/12 06:24:13;;;;;;;8.88;6.03;;;10.30;99.90;;;;;;5037610;28;20036;-73
2023/05/12 06:26:38;;;;;;;7.70;4.60;;;10.40;99.90;;;;;;5038663;28;20037;-75
2023/05/12 06:29:07;;;;;;;12.57;6.30;;;10.40;99.90;;;;;;5037585;28;20036;-73
2023/05/12 06:31:33;;;;;;;9.68;6.35;;;10.50;99.90;;;;;;5038740;28;20083;-73
2023/05/12 06:33:59;;;;;;;11.20;6.28;;;10.60;99.90;;;;;;5038631;28;20021;-74
2023/05/12 06:36:26;;;;;;;11.25;5.45;;;10.60;99.90;;;;;;5038670;28;20026;-72
2023/05/12 06:38:52;;;;;;;8.77;5.50;;;10.70;99.90;;;;;;5038665;28;20022;-73
2023/05/12 06:41:18;;;;;;;8.45;4.97;;;10.80;99.90;;;;;;5038599;28;20109;-74
2023/05/12 06:43:44;;;;;;;13.40;6.18;;;10.80;99.90;;;;;;5036958;28;20119;-74
2023/05/12 06:46:10;;;;;;;12.05;7.18;;;10.90;99.90;;;;;;5038352;28;20021;-73
2023/05/12 06:48:36;;;;;;;10.23;5.25;;;10.90;99.90;;;;;;5038394;28;20029;-74
2023/05/12 06:51:02;;;;;;;10.93;5.82;;;10.90;99.90;;;;;;5038252;28;20025;-74
2023/05/12 06:53:28;;;;;;;10.13;5.80;;;11.00;99.90;;;;;;5037771;28;20014;-74
2023/05/12 06:55:54;;;;;;;13.05;6.00;;;11.00;99.90;;;;;;5038149;28;20107;-73
2023/05/12 06:58:20;;;;;;;11.38;5.85;;;11.00;99.90;;;;;;5038251;28;20105;-73
2023/05/12 07:00:47;;;;;;;10.52;6.25;;;11.00;99.90;;;;;;5032780;28;20060;-73
2023/05/12 07:03:12;;;;;;;17.60;6.22;;;10.90;99.90;;;;;;5034430;28;20055;-73
2023/05/12 07:05:38;;;;;;;11.93;6.40;;;11.00;99.90;;;;;;5037478;28;20033;-73
2023/05/12 07:08:04;;;;;;;13.40;5.47;;;11.10;99.90;;;;;;5037883;28;20083;-73
2023/05/12 07:10:31;;;;;;;10.95;5.80;;;11.20;99.90;;;;;;5037556;28;20112;-72
2023/05/12 07:12:57;;;;;;;9.80;6.47;;;11.20;99.90;;;;;;5037384;28;20014;-73
2023/05/12 07:15:23;;;;;;;9.85;5.85;;;11.30;99.90;;;;;;5033638;28;20033;-72
2023/05/12 07:17:48;;;;;;;11.88;6.55;;;11.40;99.90;;;;;;5018457;28;20402;-73
2023/05/12 07:20:14;;;;;;;7.05;4.82;;;11.50;99.90;;;;;;5019203;28;20041;-73
2023/05/12 07:22:40;;;;;;;9.18;5.22;;;11.60;99.90;;;;;;5018564;28;20053;-74
2023/05/12 07:25:06;;;;;;;14.60;6.20;;;11.60;99.90;;;;;;5020866;28;20025;-72
2023/05/12 07:27:32;;;;;;;9.77;6.15;;;11.50;99.90;;;;;;5027700;28;20052;-73
2023/05/12 07:29:58;;;;;;;8.02;5.32;;;11.60;99.90;;;;;;5036920;28;20033;-73
2023/05/12 07:32:24;;;;;;;11.55;5.97;;;11.70;99.90;;;;;;5037352;28;20409;-73
2023/05/12 07:34:50;;;;;;;11.68;5.10;;;11.80;99.90;;;;;;5036881;28;20024;-73
2023/05/12 07:37:15;;;;;;;9.90;4.97;;;11.80;99.90;;;;;;5036114;28;20022;-73
2023/05/12 07:39:41;;;;;;;8.70;5.05;;;12.10;99.90;;;;;;5035719;28;20084;-73
2023/05/12 07:42:07;;;;;;;7.00;5.00;;;12.20;99.90;;;;;;5037022;28;20024;-73
2023/05/12 07:44:33;;;;;;;9.45;5.15;;;12.20;99.90;;;;;;5037042;28;20034;-73
2023/05/12 07:46:59;;;;;;;11.27;6.57;;;12.10;99.90;;;;;;5037171;28;20068;-74
2023/05/12 07:49:24;;;;;;;12.43;4.70;;;12.00;99.90;;;;;;5036865;28;20033;-73
2023/05/12 07:51:50;;;;;;;11.43;4.40;;;11.80;99.90;;;;;;5035453;28;20021;-74
2023/05/12 07:54:16;;;;;;;6.93;4.57;;;11.80;99.90;;;;;;5036959;28;20018;-73
2023/05/12 07:56:41;;;;;;;6.90;4.45;;;11.80;99.90;;;;;;5035438;28;20040;-74
2023/05/12 07:59:07;;;;;;;4.85;4.35;;;11.90;99.90;;;;;;5036848;28;20059;-74
2023/05/12 08:01:33;;;;;;;14.23;5.25;;;11.90;99.90;;;;;;5035758;28;20021;-74
2023/05/12 08:03:59;;;;;;;15.50;5.10;;;11.90;99.90;;;;;;5036910;28;20520;-73
2023/05/12 08:06:25;;;;;;;10.38;4.45;;;11.90;99.90;;;;;;5035624;28;20138;-73
2023/05/12 08:08:50;;;;;;;9.80;4.05;;;12.00;99.90;;;;;;5035861;28;20028;-73
2023/05/12 08:11:16;;;;;;;9.57;4.45;;;12.00;99.90;;;;;;5036727;28;20104;-73
2023/05/12 08:13:42;;;;;;;10.23;5.05;;;12.00;99.90;;;;;;5035346;28;20379;-73
2023/05/12 08:16:07;;;;;;;13.85;4.75;;;12.10;99.90;;;;;;5035553;28;20018;-74
2023/05/12 08:18:33;;;;;;;9.95;4.85;;;12.30;99.90;;;;;;5028947;28;20120;-72
2023/05/12 08:20:59;;;;;;;9.13;4.22;;;12.40;99.90;;;;;;5036548;28;20021;-74
2023/05/12 08:23:25;;;;;;;6.38;3.97;;;12.30;99.90;;;;;;5032380;28;20037;-73
2023/05/12 08:25:50;;;;;;;8.95;4.47;;;12.40;99.90;;;;;;5026048;28;20440;-73
2023/05/12 08:28:16;;;;;;;10.80;4.55;;;12.40;99.90;;;;;;5020479;28;20026;-74
2023/05/12 08:30:43;;;;;;;9.32;3.95;;;12.50;99.90;;;;;;5032811;28;20059;-73
2023/05/12 08:33:09;;;;;;;8.77;4.07;;;12.30;99.90;;;;;;5034786;28;20018;-74
2023/05/12 08:35:35;;;;;;;10.60;4.25;;;12.20;99.90;;;;;;5035082;28;20029;-73
2023/05/12 08:38:01;;;;;;;8.35;4.25;;;12.20;99.90;;;;;;5034248;28;20055;-74
2023/05/12 08:40:30;;;;;;;8.50;4.55;;;12.20;99.90;;;;;;5036131;28;20052;-73
2023/05/12 08:43:25;;;;;;;9.90;4.57;;;12.30;99.90;;;;;;5038157;28;20096;-73
2023/05/12 08:45:57;;;;;;;7.53;4.47;;;12.40;99.90;;;;;;5037783;28;20117;-73
2023/05/12 08:48:28;;;;;;;15.13;3.63;;;12.50;99.90;;;;;;5034406;28;20030;-73
2023/05/12 08:50:55;;;;;;;7.05;3.45;;;12.50;99.90;;;;;;5038354;28;20428;-73
2023/05/12 08:53:22;;;;;;;10.35;4.20;;;12.50;99.90;;;;;;5038916;28;20025;-75
2023/05/12 08:55:49;;;;;;;9.35;3.92;;;12.40;99.90;;;;;;5034052;28;20398;-74
2023/05/12 08:58:15;;;;;;;10.73;5.00;;;12.60;99.90;;;;;;5034110;28;20053;-74
2023/05/12 09:00:41;;;;;;;6.30;3.28;;;12.60;99.90;;;;;;5035479;28;20444;-75
2023/05/12 09:03:07;;;;;;;5.32;3.08;;;12.70;99.90;;;;;;5038620;28;20504;-74
2023/05/12 09:05:35;;;;;;;12.18;4.50;;;12.80;99.90;;;;;;5035666;28;20037;-73
2023/05/12 09:08:01;;;;;;;7.97;3.17;;;12.90;99.90;;;;;;5035678;28;20159;-74
2023/05/12 09:10:27;;;;;;;7.90;3.47;;;12.90;99.90;;;;;;5038489;28;20033;-73
2023/05/12 09:13:20;;;;;;;8.50;2.80;;;13.00;99.90;;;;;;5038283;28;20021;-75
2023/05/12 09:15:47;;;;;;;10.65;2.50;;;13.10;99.90;;;;;;5035438;28;20018;-74
2023/05/12 09:18:13;;;;;;;12.85;3.80;;;13.00;99.90;;;;;;5034690;28;20045;-72
2023/05/12 09:20:39;;;;;;;11.32;3.13;;;13.00;99.90;;;;;;5030138;28;20026;-73
2023/05/12 09:23:16;;;;;;;6.40;2.83;;;13.20;99.90;;;;;;5036365;28;20064;-73
2023/05/12 09:25:42;;;;;;;7.50;3.25;;;13.30;99.90;;;;;;5034914;28;20037;-73
2023/05/12 09:28:08;;;;;;;5.07;2.58;;;13.20;99.90;;;;;;5035940;28;20084;-73
2023/05/12 09:30:36;;;;;;;7.18;2.70;;;13.20;99.90;;;;;;5038049;28;20033;-73
2023/05/12 09:33:11;;;;;;;7.40;4.25;;;13.30;99.90;;;;;;5038177;28;20028;-73
2023/05/12 09:35:48;;;;;;;6.00;3.05;;;13.40;99.90;;;;;;5038006;28;20021;-71
2023/05/12 09:38:14;;;;;;;6.95;3.03;;;13.50;99.90;;;;;;5034503;28;20100;-73
2023/05/12 09:40:39;;;;;;;4.90;2.78;;;13.60;99.90;;;;;;5035381;28;20049;-73
2023/05/12 09:43:06;;;;;;;9.00;4.03;;;13.70;99.90;;;;;;5035801;28;20029;-74
2023/05/12 09:45:38;;;;;;;9.48;3.10;;;13.80;99.90;;;;;;5038609;28;20017;-74
2023/05/12 09:48:13;;;;;;;5.30;3.15;;;14.00;99.90;;;;;;5037288;28;20105;-74
2023/05/12 09:50:46;;;;;;;8.10;3.50;;;14.20;99.90;;;;;;5037727;28;20048;-74
2023/05/12 09:53:13;;;;;;;9.63;3.50;;;14.40;99.90;;;;;;5034491;28;20558;-75
2023/05/12 09:55:42;;;;;;;11.98;3.00;;;14.50;99.90;;;;;;5036157;28;20454;-73
2023/05/12 09:58:09;;;;;;;6.93;3.50;;;14.80;99.90;;;;;;5032870;28;20026;-74
2023/05/12 10:00:39;;;;;;;5.95;2.78;;;14.80;99.90;;;;;;5037697;28;20513;-73
2023/05/12 10:03:10;;;;;;;6.35;3.15;;;14.70;99.90;;;;;;5032482;28;20025;-73
2023/05/12 10:05:46;;;;;;;8.05;3.35;;;14.60;99.90;;;;;;5037796;28;20037;-74
2023/05/12 10:08:20;;;;;;;4.72;2.80;;;14.20;99.90;;;;;;5036244;28;20053;-74
2023/05/12 10:10:49;;;;;;;11.50;4.07;;;13.40;99.90;;;;;;5037279;28;20051;-74
2023/05/12 10:13:15;;;;;;;9.25;3.45;;;12.80;99.90;;;;;;5037478;28;20029;-74
2023/05/12 10:15:42;;;;;;;8.45;4.55;;;12.50;99.90;;;;;;5037703;28;20020;-74
2023/05/12 10:18:09;;;;;;;9.43;3.25;;;12.30;99.90;;;;;;5035707;28;20060;-73
2023/05/12 10:20:35;;;;;;;8.82;4.43;;;12.20;99.90;;;;;;5037495;28;20378;-74
2023/05/12 10:23:02;;;;;;;8.23;4.47;;;12.20;99.90;;;;;;5037690;28;20029;-74
2023/05/12 10:25:29;;;;;;;11.38;4.70;;;12.10;99.90;;;;;;5037235;28;20029;-74
2023/05/12 10:27:56;;;;;;;6.13;4.15;;;12.10;99.90;;;;;;5035362;28;20485;-74
2023/05/12 10:30:22;;;;;;;8.02;4.47;;;12.10;99.90;;;;;;5034668;28;20033;-74
2023/05/12 10:32:49;;;;;;;6.90;3.88;;;12.20;99.90;;;;;;5034299;28;20026;-73
2023/05/12 10:35:15;;;;;;;8.55;4.60;;;12.20;99.90;;;;;;5036682;28;20028;-74
2023/05/12 10:37:41;;;;;;;10.30;4.30;;;12.20;99.90;;;;;;5034799;28;20021;-73
2023/05/12 10:40:09;;;;;;;8.05;3.92;;;12.20;99.90;;;;;;5033863;28;20418;-74
2023/05/12 10:42:41;;;;;;;7.18;4.03;;;12.40;99.90;;;;;;5034145;28;21368;-73
2023/05/12 10:45:17;;;;;;;12.23;4.28;;;12.50;99.90;;;;;;5036890;28;20113;-74
2023/05/12 10:47:43;;;;;;;10.60;4.32;;;12.70;99.90;;;;;;5036384;28;20381;-73
2023/05/12 10:50:12;;;;;;;7.93;3.50;;;12.90;99.90;;;;;;5036234;28;20034;-74
2023/05/12 10:52:59;;;;;;;6.20;3.50;;;13.10;99.90;;;;;;5036181;28;20032;-73
2023/05/12 10:55:33;;;;;;;6.10;3.50;;;13.30;99.90;;;;;;5028841;28;20726;-74
2023/05/12 10:58:10;;;;;;;7.32;4.35;;;13.60;99.90;;;;;;5035549;28;20079;-74
2023/05/12 11:00:49;;;;;;;10.00;3.15;;;13.80;99.90;;;;;;5034400;28;20029;-74
2023/05/12 11:03:16;;;;;;;10.25;3.30;;;13.80;99.90;;;;;;5031931;28;20478;-73
2023/05/12 11:05:44;;;;;;;9.48;3.42;;;14.00;99.90;;;;;;5036249;28;20080;-74
2023/05/12 11:08:10;;;;;;;5.95;2.88;;;14.20;99.90;;;;;;5035900;28;20105;-74
2023/05/12 11:10:39;;;;;;;4.70;2.83;;;14.30;99.90;;;;;;5033239;28;20052;-74
2023/05/12 11:13:05;;;;;;;5.13;3.13;;;14.70;99.90;;;;;;5036167;28;20104;-74
2023/05/12 11:15:31;;;;;;;8.35;3.08;;;14.70;99.90;;;;;;5034453;28;20138;-74
2023/05/12 11:17:57;;;;;;;7.65;3.15;;;15.00;99.90;;;;;;5034704;28;20064;-74
2023/05/12 11:20:24;;;;;;;8.27;3.05;;;15.20;99.90;;;;;;5032945;28;20079;-74
2023/05/12 11:22:51;;;;;;;9.93;3.00;;;15.30;99.90;;;;;;5034853;28;20398;-73
2023/05/12 11:25:17;;;;;;;10.48;3.50;;;15.20;99.90;;;;;;5028610;28;20025;-74
2023/05/12 11:27:48;;;;;;;5.95;3.05;;;15.30;99.90;;;;;;5026234;28;20505;-75
2023/05/12 11:30:13;;;;;;;4.80;3.15;;;15.30;99.90;;;;;;5035217;28;20028;-74
2023/05/12 11:32:39;;;;;;;5.45;2.83;;;15.20;99.90;;;;;;5032059;28;20018;-74
2023/05/12 11:35:16;;;;;;;4.07;2.88;;;15.20;99.90;;;;;;5031374;28;20061;-74
2023/05/12 11:37:43;;;;;;;5.47;2.72;;;15.20;99.90;;;;;;5031215;28;20077;-74
2023/05/12 11:40:21;;;;;;;4.88;2.08;;;15.30;99.90;;;;;;5030391;28;20021;-73
2023/05/12 11:42:54;;;;;;;4.55;2.35;;;15.20;99.90;;;;;;5031906;28;20386;-74
2023/05/12 11:45:24;;;;;;;4.15;2.28;;;15.30;99.90;;;;;;5032945;28;20024;-74
2023/05/12 11:47:50;;;;;;;5.03;2.50;;;15.30;99.90;;;;;;5035076;28;20080;-73
2023/05/12 11:50:21;;;;;;;3.47;2.13;;;15.40;99.90;;;;;;5034262;28;20029;-76
2023/05/12 11:52:47;;;;;;;4.55;2.42;;;15.50;99.90;;;;;;5029580;28;20030;-73
2023/05/12 11:55:20;;;;;;;2.78;2.10;;;15.60;99.90;;;;;;5032717;28;20045;-74
2023/05/12 11:57:58;;;;;;;5.13;2.40;;;15.70;99.90;;;;;;5034322;28;20020;-73
2023/05/12 12:00:34;;;;;;;3.60;2.13;;;16.00;99.90;;;;;;5030869;28;20060;-73
2023/05/12 12:03:11;;;;;;;5.82;2.55;;;16.10;99.90;;;;;;5034609;28;20019;-74
2023/05/12 12:05:37;;;;;;;3.10;1.98;;;16.40;99.90;;;;;;5033529;28;20033;-73
2023/05/12 12:08:05;;;;;;;3.72;2.10;;;16.70;99.90;;;;;;5034607;28;20018;-73
2023/05/12 12:10:31;;;;;;;4.72;2.40;;;16.70;99.90;;;;;;5035392;28;20430;-73
2023/05/12 12:12:58;;;;;;;6.00;2.40;;;16.70;99.90;;;;;;5033943;28;20072;-74
2023/05/12 12:15:23;;;;;;;4.10;2.22;;;16.80;99.90;;;;;;5035040;28;20048;-74
2023/05/12 12:17:49;;;;;;;5.97;2.45;;;16.70;99.90;;;;;;5037375;28;20041;-74
2023/05/12 12:20:16;;;;;;;3.60;2.25;;;16.40;99.90;;;;;;5039244;28;20457;-75
2023/05/12 12:22:42;;;;;;;2.90;1.60;;;16.30;99.90;;;;;;5039305;28;20112;-74
2023/05/12 12:25:08;;;;;;;4.65;2.20;;;16.10;99.90;;;;;;5033240;28;20052;-74
2023/05/12 12:27:34;;;;;;;2.80;2.08;;;16.00;99.90;;;;;;5038008;28;20236;-74
2023/05/12 12:30:00;;;;;;;6.97;1.80;;;15.80;99.90;;;;;;5037511;28;20028;-74
2023/05/12 12:32:25;;;;;;;5.70;2.00;;;15.60;99.90;;;;;;5038164;28;20024;-74
2023/05/12 12:34:52;;;;;;;4.43;2.25;;;15.40;99.90;;;;;;5039281;28;20025;-74
2023/05/12 12:37:17;;;;;;;5.40;2.22;;;15.20;99.90;;;;;;5036165;28;20470;-74
2023/05/12 12:39:43;;;;;;;5.90;2.10;;;15.20;99.90;;;;;;5039449;28;20095;-74
2023/05/12 12:42:09;;;;;;;6.47;2.10;;;15.40;99.90;;;;;;5038980;28;20101;-76
2023/05/12 12:44:34;;;;;;;4.72;2.35;;;15.50;99.90;;;;;;5039223;28;20030;-74
2023/05/12 12:47:00;;;;;;;4.60;2.33;;;15.40;99.90;;;;;;5038828;28;20026;-75